createdAt,value
2022-09-17T00:01:31.485Z,76.90
2022-09-17T00:04:04.364Z,76.80
2022-09-17T00:06:34.868Z,76.80
2022-09-17T00:09:04.745Z,76.80
2022-09-17T00:11:35.246Z,76.70
2022-09-17T00:14:04.757Z,76.90
2022-09-17T00:16:36.675Z,77.00
2022-09-17T00:19:05.963Z,76.90
2022-09-17T00:21:33.677Z,76.80
2022-09-17T00:24:05.053Z,76.80
2022-09-17T00:26:33.838Z,76.90
2022-09-17T00:29:01.962Z,76.80
2022-09-17T00:31:30.820Z,76.80
2022-09-17T00:33:59.750Z,76.80
2022-09-17T00:36:27.250Z,76.80
2022-09-17T00:38:57.681Z,76.80
2022-09-17T00:41:30.686Z,77.00
2022-09-17T00:44:01.974Z,77.00
2022-09-17T00:46:36.855Z,77.10
2022-09-17T00:49:29.337Z,77.10
2022-09-17T00:52:11.086Z,77.50
2022-09-17T00:54:41.461Z,77.50
2022-09-17T00:57:09.459Z,77.30
2022-09-17T00:59:36.966Z,77.20
2022-09-17T01:02:06.449Z,77.40
2022-09-17T01:04:33.547Z,77.30
2022-09-17T01:07:13.659Z,77.30
2022-09-17T01:09:56.988Z,77.50
2022-09-17T01:13:07.500Z,77.60
2022-09-17T01:16:14.711Z,77.60
2022-09-17T01:18:53.836Z,78.00
2022-09-17T01:21:43.856Z,78.10
2022-09-17T01:24:51.456Z,78.10
2022-09-17T01:27:27.474Z,78.30
2022-09-17T01:30:17.316Z,78.30
2022-09-17T01:33:11.495Z,77.90
2022-09-17T01:35:54.885Z,78.00
2022-09-17T01:38:54.081Z,78.10
2022-09-17T01:41:27.403Z,77.70
2022-09-17T01:44:40.680Z,77.90
2022-09-17T01:47:30.420Z,77.80
2022-09-17T01:50:18.341Z,77.50
2022-09-17T01:52:49.947Z,77.80
2022-09-17T01:55:18.938Z,77.70
2022-09-17T01:58:08.706Z,77.70
2022-09-17T02:00:37.778Z,77.60
2022-09-17T02:03:17.430Z,77.70
2022-09-17T02:05:56.125Z,77.80
2022-09-17T02:08:28.784Z,78.00
2022-09-17T02:11:22.717Z,77.90
2022-09-17T02:14:10.221Z,78.20
2022-09-17T02:16:43.339Z,78.50
2022-09-17T02:19:23.691Z,78.40
2022-09-17T02:22:05.678Z,78.70
2022-09-17T02:25:08.903Z,78.60
2022-09-17T02:28:03.884Z,78.50
2022-09-17T02:30:32.263Z,78.40
2022-09-17T02:33:01.616Z,78.00
2022-09-17T02:35:31.134Z,77.90
2022-09-17T02:37:58.806Z,77.70
2022-09-17T02:40:30.203Z,77.60
2022-09-17T02:43:32.538Z,77.60
2022-09-17T02:46:36.328Z,77.60
2022-09-17T02:49:41.253Z,77.60
2022-09-17T02:53:00.781Z,77.30
2022-09-17T02:55:51.222Z,77.70
2022-09-17T02:58:32.524Z,77.60
2022-09-17T03:01:09.974Z,77.40
2022-09-17T03:03:43.713Z,77.50
2022-09-17T03:06:10.870Z,77.60
2022-09-17T03:08:41.585Z,77.50
2022-09-17T03:11:12.952Z,77.70
2022-09-17T03:13:40.884Z,77.60
2022-09-17T03:16:08.559Z,77.70
2022-09-17T03:18:36.001Z,77.70
2022-09-17T03:21:03.249Z,77.70
2022-09-17T03:23:30.828Z,77.70
2022-09-17T03:25:59.341Z,77.80
2022-09-17T03:28:26.566Z,78.00
2022-09-17T03:30:54.612Z,78.00
2022-09-17T03:33:22.079Z,78.10
2022-09-17T03:35:49.170Z,78.20
2022-09-17T03:38:17.260Z,78.20
2022-09-17T03:40:44.494Z,78.40
2022-09-17T03:43:11.697Z,78.50
2022-09-17T03:45:39.310Z,78.60
2022-09-17T03:48:06.635Z,78.90
2022-09-17T03:50:33.647Z,79.00
2022-09-17T03:53:01.165Z,79.10
2022-09-17T03:55:28.368Z,79.10
2022-09-17T03:57:56.186Z,79.20
2022-09-17T04:00:24.434Z,79.30
2022-09-17T04:02:51.651Z,79.40
2022-09-17T04:05:18.571Z,79.30
2022-09-17T04:07:45.825Z,79.30
2022-09-17T04:10:12.847Z,79.20
2022-09-17T04:12:40.050Z,78.90
2022-09-17T04:15:08.038Z,78.80
2022-09-17T04:17:35.107Z,78.70
2022-09-17T04:20:04.136Z,78.60
2022-09-17T04:22:31.192Z,78.60
2022-09-17T04:24:58.325Z,78.60
2022-09-17T04:27:25.451Z,78.80
2022-09-17T04:29:52.572Z,78.80
2022-09-17T04:32:19.610Z,78.80
2022-09-17T04:34:46.718Z,78.70
2022-09-17T04:37:13.905Z,78.70
2022-09-17T04:39:40.844Z,78.70
2022-09-17T04:42:07.884Z,78.60
2022-09-17T04:44:34.944Z,79.00
2022-09-17T04:47:02.044Z,78.50
2022-09-17T04:49:31.017Z,78.40
2022-09-17T04:51:58.018Z,78.30
2022-09-17T04:54:25.388Z,78.20
2022-09-17T04:56:52.899Z,78.30
2022-09-17T04:59:19.851Z,78.40
2022-09-17T05:01:47.250Z,78.50
2022-09-17T05:04:14.205Z,78.50
2022-09-17T05:06:41.750Z,78.50
2022-09-17T05:09:08.941Z,78.50
2022-09-17T05:11:36.525Z,78.50
2022-09-17T05:14:03.896Z,78.90
2022-09-17T05:16:31.006Z,78.40
2022-09-17T05:18:58.225Z,78.30
2022-09-17T05:21:25.772Z,78.20
2022-09-17T05:23:52.812Z,78.30
2022-09-17T05:26:19.734Z,78.10
2022-09-17T05:28:46.768Z,78.00
2022-09-17T05:31:14.158Z,78.00
2022-09-17T05:33:41.119Z,78.20
2022-09-17T05:36:08.585Z,77.90
2022-09-17T05:38:35.925Z,77.90
2022-09-17T05:41:07.599Z,77.90
2022-09-17T05:43:34.934Z,77.80
2022-09-17T05:46:06.083Z,77.90
2022-09-17T05:48:34.072Z,77.80
2022-09-17T05:51:01.033Z,77.80
2022-09-17T05:53:27.987Z,77.80
2022-09-17T05:55:59.162Z,77.70
2022-09-17T05:58:27.256Z,77.70
2022-09-17T06:00:54.332Z,77.70
2022-09-17T06:03:22.902Z,77.80
2022-09-17T06:05:59.128Z,77.50
2022-09-17T06:08:28.646Z,77.30
2022-09-17T06:11:00.226Z,77.50
2022-09-17T06:13:28.936Z,77.50
2022-09-17T06:15:58.620Z,77.40
2022-09-17T06:18:25.655Z,77.30
2022-09-17T06:21:01.307Z,77.30
2022-09-17T06:23:35.130Z,77.00
2022-09-17T06:26:03.492Z,77.90
2022-09-17T06:28:30.540Z,76.90
2022-09-17T06:31:03.345Z,76.80
2022-09-17T06:33:32.238Z,76.60
2022-09-17T06:36:01.695Z,76.40
2022-09-17T06:38:29.786Z,76.50
2022-09-17T06:40:58.213Z,76.30
2022-09-17T06:43:25.867Z,76.20
2022-09-17T06:45:57.940Z,76.20
2022-09-17T06:48:27.476Z,76.10
2022-09-17T06:50:55.480Z,76.20
2022-09-17T06:53:24.284Z,76.20
2022-09-17T06:55:51.754Z,76.20
2022-09-17T06:58:18.813Z,76.30
2022-09-17T07:00:46.169Z,76.30
2022-09-17T07:03:13.171Z,76.20
2022-09-17T07:05:40.230Z,75.60
2022-09-17T07:08:07.431Z,75.70
2022-09-17T07:10:34.447Z,75.30
2022-09-17T07:13:01.532Z,75.50
2022-09-17T07:15:28.620Z,75.50
2022-09-17T07:17:55.752Z,75.20
2022-09-17T07:20:22.717Z,75.50
2022-09-17T07:22:57.749Z,75.50
2022-09-17T07:25:26.778Z,75.00
2022-09-17T07:27:53.947Z,75.30
2022-09-17T07:30:21.903Z,75.30
2022-09-17T07:32:48.938Z,75.00
2022-09-17T07:35:15.990Z,74.60
2022-09-17T07:37:42.868Z,74.20
2022-09-17T07:40:10.193Z,73.50
2022-09-17T07:42:37.381Z,73.40
2022-09-17T07:45:05.015Z,73.50
2022-09-17T07:47:32.897Z,73.70
2022-09-17T07:49:59.835Z,73.20
2022-09-17T07:52:27.090Z,73.30
2022-09-17T07:54:54.003Z,73.30
2022-09-17T07:57:21.074Z,73.40
2022-09-17T07:59:48.009Z,73.20
2022-09-17T08:02:15.186Z,73.50
2022-09-17T08:04:46.084Z,73.50
2022-09-17T08:07:13.993Z,73.30
2022-09-17T08:09:41.010Z,73.20
2022-09-17T08:12:08.201Z,73.00
2022-09-17T08:14:35.322Z,72.70
2022-09-17T08:17:02.274Z,73.00
2022-09-17T08:19:32.990Z,72.70
2022-09-17T08:22:00.215Z,72.70
2022-09-17T08:24:27.812Z,73.40
2022-09-17T08:26:54.855Z,73.50
2022-09-17T08:29:21.864Z,73.10
2022-09-17T08:31:49.945Z,73.10
2022-09-17T08:34:16.985Z,72.90
2022-09-17T08:36:44.832Z,72.80
2022-09-17T08:39:12.430Z,72.50
2022-09-17T08:41:50.855Z,72.40
2022-09-17T08:44:36.804Z,71.70
2022-09-17T08:47:33.614Z,72.30
2022-09-17T08:50:05.865Z,72.10
2022-09-17T08:53:04.398Z,70.90
2022-09-17T08:55:51.765Z,71.60
2022-09-17T08:58:47.075Z,71.00
2022-09-17T09:01:47.497Z,71.30
2022-09-17T09:04:18.512Z,70.70
2022-09-17T09:06:52.629Z,70.70
2022-09-17T09:09:25.042Z,70.80
2022-09-17T09:12:03.501Z,70.10
2022-09-17T09:14:41.628Z,69.50
2022-09-17T09:17:10.987Z,69.90
2022-09-17T09:19:46.798Z,70.20
2022-09-17T09:22:38.761Z,70.10
2022-09-17T09:25:23.435Z,69.60
2022-09-17T09:28:35.312Z,70.00
2022-09-17T09:31:38.958Z,69.80
2022-09-17T09:34:06.170Z,69.60
2022-09-17T09:36:34.101Z,69.80
2022-09-17T09:39:30.707Z,69.60
2022-09-17T09:42:10.657Z,69.50
2022-09-17T09:44:38.093Z,69.10
2022-09-17T09:47:19.960Z,69.00
2022-09-17T09:50:38.386Z,69.10
2022-09-17T09:53:51.684Z,68.90
2022-09-17T09:56:32.929Z,68.90
2022-09-17T09:58:59.958Z,69.50
2022-09-17T10:01:31.698Z,68.60
2022-09-17T10:03:58.941Z,68.90
2022-09-17T10:06:30.597Z,68.30
2022-09-17T10:08:57.486Z,68.10
2022-09-17T10:11:28.802Z,68.40
2022-09-17T10:14:25.876Z,68.40
2022-09-17T10:17:26.593Z,68.70
2022-09-17T10:20:05.595Z,69.10
2022-09-17T10:22:38.652Z,68.80
2022-09-17T10:25:21.394Z,69.30
2022-09-17T10:27:49.600Z,69.30
2022-09-17T10:30:19.025Z,69.20
2022-09-17T10:33:34.043Z,69.30
2022-09-17T10:36:10.182Z,69.30
2022-09-17T10:38:46.094Z,69.40
2022-09-17T10:41:22.317Z,69.80
2022-09-17T10:43:51.063Z,69.80
2022-09-17T10:46:29.131Z,69.80
2022-09-17T10:49:32.605Z,70.00
2022-09-17T10:52:15.044Z,70.40
2022-09-17T10:55:10.121Z,69.30
2022-09-17T10:58:08.019Z,70.20
2022-09-17T11:00:53.013Z,69.30
2022-09-17T11:03:59.072Z,69.90
2022-09-17T11:06:52.685Z,69.90
2022-09-17T11:10:01.628Z,70.20
2022-09-17T11:13:07.722Z,70.50
2022-09-17T11:15:52.769Z,70.80
2022-09-17T11:18:36.026Z,71.00
2022-09-17T11:21:35.788Z,71.30
2022-09-17T11:24:48.778Z,71.50
2022-09-17T11:27:47.894Z,71.60
2022-09-17T11:30:24.152Z,72.00
2022-09-17T11:33:05.904Z,72.20
2022-09-17T11:35:49.777Z,72.50
2022-09-17T11:38:30.583Z,72.60
2022-09-17T11:41:08.235Z,72.70
2022-09-17T11:43:42.131Z,72.80
2022-09-17T11:46:29.334Z,73.10
2022-09-17T11:49:52.436Z,73.20
2022-09-17T11:52:28.580Z,73.90
2022-09-17T11:55:35.915Z,73.80
2022-09-17T11:58:28.483Z,73.20
2022-09-17T12:01:12.798Z,73.00
2022-09-17T12:04:01.726Z,72.60
2022-09-17T12:06:46.878Z,72.50
2022-09-17T12:09:23.229Z,72.30
2022-09-17T12:12:05.643Z,72.30
2022-09-17T12:14:51.138Z,72.40
2022-09-17T12:17:28.055Z,72.40
2022-09-17T12:20:03.436Z,72.50
2022-09-17T12:22:40.069Z,72.60
2022-09-17T12:25:13.352Z,72.20
2022-09-17T12:27:46.030Z,72.30
2022-09-17T12:30:22.002Z,72.10
2022-09-17T12:33:07.496Z,71.90
2022-09-17T12:36:05.786Z,71.50
2022-09-17T12:39:12.045Z,71.40
2022-09-17T12:42:04.977Z,71.40
2022-09-17T12:45:26.322Z,71.40
2022-09-17T12:48:00.189Z,71.60
2022-09-17T12:50:49.886Z,71.20
2022-09-17T12:53:22.939Z,71.10
2022-09-17T12:56:22.405Z,71.10
2022-09-17T12:59:11.361Z,71.00
2022-09-17T13:02:00.155Z,70.60
2022-09-17T13:05:15.904Z,70.40
2022-09-17T13:08:33.309Z,70.60
2022-09-17T13:11:21.481Z,70.80
2022-09-17T13:14:33.808Z,70.40
2022-09-17T13:17:11.267Z,70.30
2022-09-17T13:20:20.487Z,69.90
2022-09-17T13:22:50.613Z,69.70
2022-09-17T13:25:20.717Z,69.60
2022-09-17T13:27:50.278Z,69.40
2022-09-17T13:30:20.765Z,69.90
2022-09-17T13:32:51.305Z,69.70
2022-09-17T13:35:18.200Z,69.70
2022-09-17T13:37:59.154Z,70.10
2022-09-17T13:40:37.425Z,70.00
2022-09-17T13:43:04.412Z,70.30
2022-09-17T13:45:34.144Z,70.00
2022-09-17T13:48:08.509Z,70.20
2022-09-17T13:50:41.949Z,70.30
2022-09-17T13:53:21.381Z,70.70
2022-09-17T13:56:01.153Z,71.00
2022-09-17T13:58:32.369Z,71.30
2022-09-17T14:01:09.452Z,71.60
2022-09-17T14:03:41.212Z,71.70
2022-09-17T14:06:08.557Z,71.70
2022-09-17T14:08:44.441Z,71.70
2022-09-17T14:12:44.443Z,72.10
2022-09-17T14:15:43.323Z,73.40
2022-09-17T14:18:28.745Z,73.30
2022-09-17T14:21:09.761Z,73.60
2022-09-17T14:23:48.392Z,73.90
2022-09-17T14:26:32.350Z,73.60
2022-09-17T14:29:16.846Z,74.00
2022-09-17T14:31:43.975Z,74.00
2022-09-17T14:34:20.546Z,74.00
2022-09-17T14:36:48.441Z,74.50
2022-09-17T14:39:24.205Z,74.20
2022-09-17T14:41:53.027Z,74.40
2022-09-17T14:44:23.448Z,74.40
2022-09-17T14:47:06.871Z,74.40
2022-09-17T14:49:36.813Z,75.30
2022-09-17T14:52:30.674Z,74.60
2022-09-17T14:55:26.951Z,74.90
2022-09-17T14:58:05.167Z,74.60
2022-09-17T15:00:36.115Z,74.80
2022-09-17T15:03:03.288Z,75.00
2022-09-17T15:05:33.129Z,75.00
2022-09-17T15:08:21.315Z,75.00
2022-09-17T15:11:03.427Z,75.50
2022-09-17T15:13:50.315Z,75.30
2022-09-17T15:16:26.113Z,75.20
2022-09-17T15:19:04.173Z,75.20
2022-09-17T15:21:45.879Z,75.20
2022-09-17T15:24:34.173Z,75.10
2022-09-17T15:27:10.868Z,75.20
2022-09-17T15:29:44.299Z,75.30
2022-09-17T15:32:14.101Z,75.50
2022-09-17T15:34:42.045Z,75.60
2022-09-17T15:37:28.188Z,75.70
2022-09-17T15:39:56.866Z,75.70
2022-09-17T15:42:30.430Z,75.60
2022-09-17T15:45:20.568Z,75.80
2022-09-17T15:47:56.714Z,75.80
2022-09-17T15:50:36.401Z,75.50
2022-09-17T15:53:09.265Z,75.50
2022-09-17T15:55:43.750Z,75.40
2022-09-17T15:58:27.961Z,75.30
2022-09-17T16:01:17.421Z,75.10
2022-09-17T16:03:44.819Z,75.00
2022-09-17T16:06:21.472Z,75.00
2022-09-17T16:08:51.408Z,75.00
2022-09-17T16:11:21.222Z,74.80
2022-09-17T16:13:49.503Z,74.90
2022-09-17T16:16:19.838Z,74.80
2022-09-17T16:18:47.155Z,74.80
2022-09-17T16:21:16.168Z,74.80
2022-09-17T16:23:43.882Z,74.90
2022-09-17T16:26:18.567Z,75.00
2022-09-17T16:28:48.523Z,75.00
2022-09-17T16:31:15.757Z,75.00
2022-09-17T16:33:42.799Z,75.00
2022-09-17T16:36:10.085Z,75.00
2022-09-17T16:38:37.154Z,75.00
2022-09-17T16:41:08.596Z,75.00
2022-09-17T16:43:35.774Z,75.10
2022-09-17T16:46:07.857Z,75.10
2022-09-17T16:48:35.231Z,75.20
2022-09-17T16:51:13.945Z,75.20
2022-09-17T16:53:41.638Z,75.40
2022-09-17T16:56:11.143Z,75.40
2022-09-17T16:58:38.622Z,75.30
2022-09-17T17:01:14.089Z,75.30
2022-09-17T17:03:42.046Z,75.40
2022-09-17T17:06:17.877Z,75.30
2022-09-17T17:08:45.899Z,75.50
2022-09-17T17:11:14.854Z,75.20
2022-09-17T17:13:45.497Z,75.20
2022-09-17T17:16:15.030Z,75.50
2022-09-17T17:18:44.148Z,75.30
2022-09-17T17:21:13.733Z,75.20
2022-09-17T17:23:43.572Z,75.20
2022-09-17T17:26:10.608Z,75.20
2022-09-17T17:28:37.806Z,75.20
2022-09-17T17:31:05.914Z,75.20
2022-09-17T17:33:33.532Z,75.40
2022-09-17T17:36:07.593Z,75.50
2022-09-17T17:38:36.907Z,75.50
2022-09-17T17:41:13.082Z,75.60
2022-09-17T17:43:41.316Z,75.60
2022-09-17T17:46:11.188Z,75.60
2022-09-17T17:48:38.568Z,75.80
2022-09-17T17:51:10.447Z,75.60
2022-09-17T17:53:38.285Z,75.80
2022-09-17T17:56:07.760Z,75.70
2022-09-17T17:58:36.910Z,75.80
2022-09-17T18:01:23.801Z,75.80
2022-09-17T18:03:55.703Z,75.80
2022-09-17T18:06:22.656Z,75.50
2022-09-17T18:08:49.581Z,75.40
2022-09-17T18:11:16.776Z,75.50
2022-09-17T18:13:44.858Z,75.40
2022-09-17T18:16:15.619Z,75.30
2022-09-17T18:18:45.358Z,75.60
2022-09-17T18:21:22.843Z,75.40
2022-09-17T18:23:50.854Z,75.50
2022-09-17T18:26:22.099Z,75.50
2022-09-17T18:28:50.888Z,75.50
2022-09-17T18:31:31.507Z,75.40
2022-09-17T18:34:12.370Z,75.30
2022-09-17T18:36:40.849Z,75.30
2022-09-17T18:39:44.929Z,75.30
2022-09-17T18:41:59.013Z,75.30
2022-09-17T18:44:26.087Z,75.20
2022-09-17T18:46:53.867Z,75.20
2022-09-17T18:49:21.329Z,75.20
2022-09-17T18:51:48.558Z,75.10
2022-09-17T18:54:15.911Z,75.10
2022-09-17T18:56:42.978Z,75.10
2022-09-17T18:59:10.899Z,75.00
2022-09-17T19:01:38.319Z,75.00
2022-09-17T19:04:10.040Z,75.00
2022-09-17T19:06:38.046Z,75.00
2022-09-17T19:09:05.785Z,75.00
2022-09-17T19:11:36.255Z,75.00
2022-09-17T19:14:03.532Z,75.00
2022-09-17T19:16:30.843Z,75.00
2022-09-17T19:18:58.032Z,75.00
2022-09-17T19:21:25.025Z,75.00
2022-09-17T19:23:53.750Z,74.90
2022-09-17T19:26:25.304Z,74.90
2022-09-17T19:29:03.451Z,74.80
2022-09-17T19:31:30.917Z,74.80
2022-09-17T19:34:00.173Z,74.70
2022-09-17T19:36:27.601Z,74.70
2022-09-17T19:38:55.509Z,74.70
2022-09-17T19:41:23.214Z,74.70
2022-09-17T19:43:54.955Z,75.40
2022-09-17T19:46:26.968Z,74.60
2022-09-17T19:48:57.165Z,74.60
2022-09-17T19:51:26.606Z,74.60
2022-09-17T19:53:53.779Z,75.30
2022-09-17T19:56:24.382Z,75.70
2022-09-17T19:58:52.215Z,75.70
2022-09-17T20:01:20.122Z,75.70
2022-09-17T20:03:48.805Z,75.60
2022-09-17T20:06:20.561Z,75.60
2022-09-17T20:08:50.551Z,75.60
2022-09-17T20:11:19.881Z,75.60
2022-09-17T20:13:47.027Z,75.60
2022-09-17T20:16:21.533Z,75.80
2022-09-17T20:18:49.722Z,75.80
2022-09-17T20:21:23.782Z,75.90
2022-09-17T20:23:51.623Z,76.10
2022-09-17T20:26:18.752Z,76.00
2022-09-17T20:28:46.837Z,76.20
2022-09-17T20:31:20.768Z,76.20
2022-09-17T20:33:48.283Z,76.30
2022-09-17T20:36:18.876Z,76.50
2022-09-17T20:41:36.247Z,76.40
2022-09-17T20:44:03.385Z,76.30
2022-09-17T20:46:30.512Z,76.40
2022-09-17T20:48:58.183Z,76.40
2022-09-17T20:51:29.142Z,76.40
2022-09-17T20:53:57.703Z,75.20
2022-09-17T20:56:29.524Z,75.10
2022-09-17T20:59:08.878Z,75.10
2022-09-17T21:01:37.571Z,75.10
2022-09-17T21:04:07.546Z,75.10
2022-09-17T21:06:38.608Z,74.80
2022-09-17T21:09:06.509Z,74.80
2022-09-17T21:11:35.362Z,74.80
2022-09-17T21:14:03.228Z,74.80
2022-09-17T21:16:30.895Z,74.80
2022-09-17T21:19:01.528Z,74.90
2022-09-17T21:21:29.909Z,74.90
2022-09-17T21:24:04.781Z,75.00
2022-09-17T21:26:32.585Z,75.00
2022-09-17T21:29:00.017Z,75.00
2022-09-17T21:31:32.642Z,75.00
2022-09-17T21:34:07.822Z,75.70
2022-09-17T21:36:38.704Z,75.00
2022-09-17T21:39:15.547Z,75.00
2022-09-17T21:41:44.413Z,74.60
2022-09-17T21:44:12.625Z,74.60
2022-09-17T21:46:41.581Z,74.50
2022-09-17T21:49:09.318Z,74.60
2022-09-17T21:51:40.071Z,74.60
2022-09-17T21:54:13.780Z,74.90
2022-09-17T21:56:40.917Z,74.80
2022-09-17T21:59:11.890Z,74.90
2022-09-17T22:01:46.803Z,74.90
2022-09-17T22:04:18.128Z,74.90
2022-09-17T22:06:47.609Z,74.90
2022-09-17T22:09:24.397Z,74.90
2022-09-17T22:11:53.252Z,74.80
2022-09-17T22:14:25.056Z,74.90
2022-09-17T22:16:55.161Z,75.00
2022-09-17T22:19:25.015Z,75.00
2022-09-17T22:21:54.648Z,75.00
2022-09-17T22:24:22.812Z,75.00
2022-09-17T22:26:57.226Z,75.00
2022-09-17T22:29:28.117Z,75.00
2022-09-17T22:31:55.348Z,75.00
2022-09-17T22:34:23.735Z,74.80
2022-09-17T22:36:50.961Z,74.70
2022-09-17T22:39:21.340Z,75.00
2022-09-17T22:41:48.464Z,74.90
2022-09-17T22:44:18.582Z,74.90
2022-09-17T22:46:48.684Z,74.80
2022-09-17T22:49:16.568Z,74.90
2022-09-17T22:51:45.139Z,74.90
2022-09-17T22:54:14.348Z,75.00
2022-09-17T22:56:42.233Z,74.90
2022-09-17T22:59:09.511Z,75.00
2022-09-17T23:01:37.353Z,75.00
2022-09-17T23:04:05.969Z,75.00
2022-09-17T23:06:37.944Z,75.00
2022-09-17T23:09:05.720Z,75.00
2022-09-17T23:11:36.836Z,75.00
2022-09-17T23:14:12.101Z,75.00
2022-09-17T23:16:46.340Z,75.00
2022-09-17T23:19:16.344Z,75.00
2022-09-17T23:21:44.512Z,75.00
2022-09-17T23:24:18.943Z,75.00
2022-09-17T23:26:46.511Z,75.00
2022-09-17T23:29:14.077Z,75.10
2022-09-17T23:31:41.473Z,75.00
2022-09-17T23:34:09.543Z,75.00
2022-09-17T23:36:39.013Z,75.00
2022-09-17T23:39:07.922Z,75.30
2022-09-17T23:41:43.008Z,75.00
2022-09-17T23:44:14.868Z,75.00
2022-09-17T23:46:44.843Z,75.10
2022-09-17T23:49:14.372Z,75.20
2022-09-17T23:51:41.385Z,75.20
2022-09-17T23:54:09.037Z,75.10
2022-09-17T23:56:36.453Z,75.10
2022-09-17T23:59:04.786Z,75.10
